createdAt,value
2018-01-23T00:00:33.840Z,22.31
2018-01-23T00:01:33.843Z,22.33
2018-01-23T00:02:33.844Z,22.40
2018-01-23T00:03:33.847Z,22.39
2018-01-23T00:04:33.848Z,22.35
2018-01-23T00:05:33.851Z,22.42
2018-01-23T00:06:33.853Z,22.42
2018-01-23T00:07:33.858Z,22.37
2018-01-23T00:08:33.856Z,22.45
2018-01-23T00:09:33.859Z,22.39
2018-01-23T00:10:33.861Z,22.31
2018-01-23T00:11:33.864Z,22.39
2018-01-23T00:12:33.865Z,22.43
2018-01-23T00:13:33.867Z,22.36
2018-01-23T00:14:33.872Z,22.40
2018-01-23T00:15:33.872Z,22.39
2018-01-23T00:16:33.877Z,22.42
2018-01-23T00:17:33.876Z,22.36
2018-01-23T00:18:33.878Z,22.31
2018-01-23T00:19:33.880Z,22.43
2018-01-23T00:20:33.882Z,22.35
2018-01-23T00:21:33.883Z,22.36
2018-01-23T00:22:33.886Z,22.36
2018-01-23T00:23:33.889Z,22.35
2018-01-23T00:24:33.890Z,22.40
2018-01-23T00:25:33.892Z,22.37
2018-01-23T00:26:33.895Z,22.39
2018-01-23T00:27:33.896Z,22.35
2018-01-23T00:28:33.899Z,22.30
2018-01-23T00:29:33.901Z,22.30
2018-01-23T00:30:33.903Z,22.35
2018-01-23T00:31:33.905Z,22.36
2018-01-23T00:32:33.906Z,22.35
2018-01-23T00:33:33.909Z,22.36
2018-01-23T00:34:33.912Z,22.33
2018-01-23T00:35:33.914Z,22.43
2018-01-23T00:36:33.914Z,22.39
2018-01-23T00:37:33.917Z,22.28
2018-01-23T00:38:33.919Z,22.35
2018-01-23T00:39:33.923Z,22.33
2018-01-23T00:40:33.923Z,22.36
2018-01-23T00:41:33.925Z,22.33
2018-01-23T00:42:33.931Z,22.33
2018-01-23T00:43:33.930Z,22.28
2018-01-23T00:44:33.931Z,22.40
2018-01-23T00:45:33.934Z,22.28
2018-01-23T00:46:33.936Z,22.43
2018-01-23T00:47:33.938Z,22.31
2018-01-23T00:48:33.940Z,22.35
2018-01-23T00:49:33.942Z,22.35
2018-01-23T00:50:33.945Z,22.42
2018-01-23T00:51:33.948Z,22.39
2018-01-23T00:52:33.948Z,22.31
2018-01-23T00:53:33.951Z,22.28
2018-01-23T00:54:33.952Z,22.31
2018-01-23T00:55:33.953Z,22.35
2018-01-23T00:56:33.956Z,22.33
2018-01-23T00:57:33.959Z,22.33
2018-01-23T00:58:33.966Z,22.31
2018-01-23T00:59:33.963Z,22.31
2018-01-23T01:00:33.965Z,22.35
2018-01-23T01:01:33.969Z,22.30
2018-01-23T01:02:33.969Z,22.31
2018-01-23T01:03:33.971Z,22.33
2018-01-23T01:04:33.972Z,22.31
2018-01-23T01:05:33.974Z,22.28
2018-01-23T01:06:33.978Z,22.36
2018-01-23T01:07:33.979Z,22.33
2018-01-23T01:08:33.981Z,22.28
2018-01-23T01:09:33.983Z,22.30
2018-01-23T01:10:33.985Z,22.22
2018-01-23T01:11:33.990Z,22.24
2018-01-23T01:12:33.988Z,22.31
2018-01-23T01:13:33.990Z,22.25
2018-01-23T01:14:33.992Z,22.33
2018-01-23T01:15:34.000Z,22.27
2018-01-23T01:16:33.997Z,22.31
2018-01-23T01:17:34.002Z,22.35
2018-01-23T01:18:34.001Z,22.35
2018-01-23T01:19:34.003Z,22.30
2018-01-23T01:20:34.004Z,22.28
2018-01-23T01:21:34.010Z,22.33
2018-01-23T01:22:34.009Z,22.33
2018-01-23T01:23:34.010Z,22.22
2018-01-23T01:24:34.013Z,22.35
2018-01-23T01:25:34.015Z,22.33
2018-01-23T01:26:34.018Z,22.28
2018-01-23T01:27:34.020Z,22.28
2018-01-23T01:28:34.021Z,22.30
2018-01-23T01:29:34.023Z,22.27
2018-01-23T01:30:34.026Z,22.27
2018-01-23T01:31:34.030Z,22.27
2018-01-23T01:32:34.034Z,22.25
2018-01-23T01:33:34.033Z,22.22
2018-01-23T01:34:34.033Z,22.27
2018-01-23T01:35:34.036Z,22.25
2018-01-23T01:36:34.038Z,22.33
2018-01-23T01:37:34.039Z,22.25
2018-01-23T01:38:34.077Z,22.35
2018-01-23T01:39:34.046Z,22.35
2018-01-23T01:40:34.045Z,22.28
2018-01-23T01:41:34.047Z,22.28
2018-01-23T01:42:34.049Z,22.24
2018-01-23T01:43:34.052Z,22.24
2018-01-23T01:44:34.053Z,22.25
2018-01-23T01:45:34.055Z,22.25
2018-01-23T01:46:34.058Z,22.31
2018-01-23T01:47:34.059Z,22.22
2018-01-23T01:48:34.061Z,22.25
2018-01-23T01:49:34.063Z,22.31
2018-01-23T01:50:34.071Z,22.30
2018-01-23T01:51:34.093Z,22.31
2018-01-23T01:52:34.069Z,22.22
2018-01-23T01:53:34.071Z,22.31
2018-01-23T01:54:34.074Z,22.27
2018-01-23T01:55:34.076Z,22.33
2018-01-23T01:56:34.077Z,22.24
2018-01-23T01:57:34.079Z,22.27
2018-01-23T01:58:34.087Z,22.24
2018-01-23T01:59:34.090Z,22.21
2018-01-23T02:00:34.087Z,22.31
2018-01-23T02:01:34.087Z,22.31
2018-01-23T02:02:34.090Z,22.24
2018-01-23T02:03:34.092Z,22.28
2018-01-23T02:04:34.095Z,22.28
2018-01-23T02:05:34.094Z,22.27
2018-01-23T02:06:34.097Z,22.21
2018-01-23T02:07:34.100Z,22.21
2018-01-23T02:08:34.100Z,22.21
2018-01-23T02:09:34.103Z,22.21
2018-01-23T02:10:34.105Z,22.25
2018-01-23T02:11:34.107Z,22.25
2018-01-23T02:12:34.108Z,22.12
2018-01-23T02:13:34.109Z,22.25
2018-01-23T02:14:34.112Z,22.30
2018-01-23T02:15:34.114Z,22.21
2018-01-23T02:16:34.115Z,22.25
2018-01-23T02:17:34.117Z,22.18
2018-01-23T02:18:34.119Z,22.17
2018-01-23T02:19:34.121Z,22.20
2018-01-23T02:20:34.139Z,22.27
2018-01-23T02:21:34.132Z,22.18
2018-01-23T02:22:34.126Z,22.21
2018-01-23T02:23:34.128Z,22.22
2018-01-23T02:24:34.129Z,22.21
2018-01-23T02:25:34.132Z,22.21
2018-01-23T02:26:34.134Z,22.21
2018-01-23T02:27:34.136Z,22.28
2018-01-23T02:28:34.139Z,22.24
2018-01-23T02:29:34.140Z,22.25
2018-01-23T02:30:34.142Z,22.20
2018-01-23T02:31:34.145Z,22.20
2018-01-23T02:32:34.145Z,22.33
2018-01-23T02:33:34.147Z,22.21
2018-01-23T02:34:34.149Z,22.24
2018-01-23T02:35:34.151Z,22.20
2018-01-23T02:36:34.152Z,22.18
2018-01-23T02:37:34.155Z,22.18
2018-01-23T02:38:34.156Z,22.21
2018-01-23T02:39:34.160Z,22.17
2018-01-23T02:40:34.159Z,22.17
2018-01-23T02:41:34.162Z,22.15
2018-01-23T02:42:34.164Z,22.20
2018-01-23T02:43:34.170Z,22.28
2018-01-23T02:44:34.166Z,22.21
2018-01-23T02:45:34.170Z,22.20
2018-01-23T02:46:34.172Z,22.20
2018-01-23T02:47:34.175Z,22.17
2018-01-23T02:48:34.178Z,22.20
2018-01-23T02:49:34.182Z,22.28
2018-01-23T02:50:34.179Z,22.21
2018-01-23T02:51:34.184Z,22.10
2018-01-23T02:52:34.183Z,22.17
2018-01-23T02:53:34.184Z,22.20
2018-01-23T02:54:34.237Z,22.18
2018-01-23T02:55:34.189Z,22.21
2018-01-23T02:56:34.190Z,22.20
2018-01-23T02:57:34.191Z,22.17
2018-01-23T02:58:34.194Z,22.18
2018-01-23T02:59:34.196Z,22.17
2018-01-23T03:00:34.197Z,22.22
2018-01-23T03:01:34.202Z,22.20
2018-01-23T03:02:34.202Z,22.18
2018-01-23T03:03:34.256Z,22.17
2018-01-23T03:04:34.206Z,22.17
2018-01-23T03:05:34.208Z,22.25
2018-01-23T03:06:34.209Z,22.18
2018-01-23T03:07:34.211Z,22.20
2018-01-23T03:08:34.212Z,22.22
2018-01-23T03:09:34.215Z,22.27
2018-01-23T03:10:34.218Z,22.24
2018-01-23T03:11:34.220Z,22.22
2018-01-23T03:12:34.223Z,22.20
2018-01-23T03:13:34.226Z,22.18
2018-01-23T03:14:34.224Z,22.17
2018-01-23T03:15:34.226Z,22.17
2018-01-23T03:16:34.226Z,22.18
2018-01-23T03:17:34.228Z,22.18
2018-01-23T03:18:34.232Z,22.20
2018-01-23T03:19:34.233Z,22.20
2018-01-23T03:20:34.234Z,22.21
2018-01-23T03:21:34.237Z,22.18
2018-01-23T03:22:34.239Z,22.07
2018-01-23T03:23:34.242Z,22.21
2018-01-23T03:24:34.242Z,22.17
2018-01-23T03:25:34.257Z,22.17
2018-01-23T03:26:34.247Z,22.21
2018-01-23T03:27:34.249Z,22.17
2018-01-23T03:28:34.252Z,22.17
2018-01-23T03:29:34.252Z,22.20
2018-01-23T03:30:34.255Z,22.21
2018-01-23T03:31:34.258Z,22.15
2018-01-23T03:32:34.258Z,22.09
2018-01-23T03:33:34.260Z,22.09
2018-01-23T03:34:34.261Z,22.21
2018-01-23T03:35:34.264Z,22.10
2018-01-23T03:36:34.267Z,22.17
2018-01-23T03:37:34.268Z,22.20
2018-01-23T03:38:34.271Z,22.14
2018-01-23T03:39:34.276Z,22.09
2018-01-23T03:40:34.273Z,22.14
2018-01-23T03:41:34.276Z,22.17
2018-01-23T03:42:34.278Z,22.17
2018-01-23T03:43:34.280Z,22.28
2018-01-23T03:44:34.280Z,22.17
2018-01-23T03:45:34.283Z,22.15
2018-01-23T03:46:34.286Z,22.22
2018-01-23T03:47:34.287Z,22.09
2018-01-23T03:48:34.289Z,22.18
2018-01-23T03:49:34.291Z,22.09
2018-01-23T03:50:34.293Z,22.17
2018-01-23T03:51:34.296Z,22.21
2018-01-23T03:52:34.296Z,22.21
2018-01-23T03:53:34.299Z,22.17
2018-01-23T03:54:34.302Z,22.20
2018-01-23T03:55:34.304Z,22.17
2018-01-23T03:56:34.315Z,22.18
2018-01-23T03:57:34.307Z,22.18
2018-01-23T03:58:34.309Z,22.22
2018-01-23T03:59:34.316Z,22.22
2018-01-23T04:00:34.313Z,22.24
2018-01-23T04:01:34.315Z,22.22
2018-01-23T04:02:34.318Z,22.18
2018-01-23T04:03:34.320Z,22.21
2018-01-23T04:04:34.322Z,22.22
2018-01-23T04:05:34.323Z,22.24
2018-01-23T04:06:34.325Z,22.28
2018-01-23T04:07:34.328Z,22.21
2018-01-23T04:08:34.329Z,22.14
2018-01-23T04:09:34.338Z,22.09
2018-01-23T04:10:34.333Z,22.17
2018-01-23T04:11:34.335Z,22.09
2018-01-23T04:12:34.337Z,22.15
2018-01-23T04:13:34.338Z,22.12
2018-01-23T04:14:34.341Z,22.12
2018-01-23T04:15:34.342Z,22.21
2018-01-23T04:16:34.343Z,22.17
2018-01-23T04:17:34.345Z,22.09
2018-01-23T04:18:34.348Z,22.17
2018-01-23T04:19:34.349Z,22.17
2018-01-23T04:20:34.349Z,22.09
2018-01-23T04:21:34.370Z,22.07
2018-01-23T04:22:34.353Z,22.15
2018-01-23T04:23:34.355Z,22.05
2018-01-23T04:24:34.355Z,22.10
2018-01-23T04:25:34.357Z,22.06
2018-01-23T04:26:34.361Z,22.07
2018-01-23T04:27:34.361Z,22.06
2018-01-23T04:28:34.361Z,22.06
2018-01-23T04:29:34.373Z,22.10
2018-01-23T04:30:34.366Z,22.12
2018-01-23T04:31:34.367Z,22.05
2018-01-23T04:32:34.368Z,22.07
2018-01-23T04:33:34.370Z,22.03
2018-01-23T04:34:34.375Z,22.14
2018-01-23T04:35:34.376Z,22.02
2018-01-23T04:36:34.378Z,22.05
2018-01-23T04:37:34.386Z,22.05
2018-01-23T04:38:34.380Z,22.10
2018-01-23T04:39:34.383Z,22.07
2018-01-23T04:40:34.384Z,22.12
2018-01-23T04:41:34.383Z,22.07
2018-01-23T04:42:34.384Z,22.10
2018-01-23T04:43:34.387Z,22.20
2018-01-23T04:44:34.387Z,22.07
2018-01-23T04:45:34.389Z,22.15
2018-01-23T04:46:34.391Z,22.14
2018-01-23T04:47:34.393Z,22.02
2018-01-23T04:48:34.394Z,22.03
2018-01-23T04:49:34.395Z,22.15
2018-01-23T04:50:34.398Z,22.12
2018-01-23T04:51:34.400Z,22.10
2018-01-23T04:52:34.404Z,22.09
2018-01-23T04:53:34.402Z,22.15
2018-01-23T04:54:34.403Z,22.18
2018-01-23T04:55:34.408Z,22.15
2018-01-23T04:56:34.408Z,22.18
2018-01-23T04:57:34.410Z,22.15
2018-01-23T04:58:34.412Z,22.14
2018-01-23T04:59:34.414Z,22.15
2018-01-23T05:00:34.419Z,22.10
2018-01-23T05:01:34.417Z,22.09
2018-01-23T05:02:34.419Z,22.14
2018-01-23T05:03:34.424Z,22.20
2018-01-23T05:04:34.421Z,22.06
2018-01-23T05:05:34.423Z,22.14
2018-01-23T05:06:34.424Z,22.15
2018-01-23T05:07:34.444Z,22.09
2018-01-23T05:08:34.428Z,22.24
2018-01-23T05:09:34.430Z,22.21
2018-01-23T05:10:34.431Z,22.07
2018-01-23T05:11:34.434Z,22.18
2018-01-23T05:12:34.434Z,22.18
2018-01-23T05:13:34.441Z,22.22
2018-01-23T05:14:34.469Z,22.18
2018-01-23T05:15:34.446Z,22.24
2018-01-23T05:16:34.446Z,22.20
2018-01-23T05:17:34.444Z,22.24
2018-01-23T05:18:34.446Z,22.21
2018-01-23T05:19:34.449Z,22.24
2018-01-23T05:20:34.449Z,22.25
2018-01-23T05:21:34.452Z,22.22
2018-01-23T05:22:34.456Z,22.31
2018-01-23T05:23:34.457Z,22.27
2018-01-23T05:24:34.458Z,22.43
2018-01-23T05:25:34.462Z,22.39
2018-01-23T05:26:34.463Z,22.39
2018-01-23T05:27:34.469Z,22.31
2018-01-23T05:28:34.469Z,22.46
2018-01-23T05:29:34.470Z,22.43
2018-01-23T05:30:34.472Z,22.47
2018-01-23T05:31:34.474Z,22.39
2018-01-23T05:32:34.476Z,22.47
2018-01-23T05:33:34.479Z,22.49
2018-01-23T05:34:34.481Z,22.52
2018-01-23T05:35:34.484Z,22.46
2018-01-23T05:36:34.484Z,22.46
2018-01-23T05:37:34.486Z,22.47
2018-01-23T05:38:34.489Z,22.49
2018-01-23T05:39:34.491Z,22.54
2018-01-23T05:40:34.493Z,22.47
2018-01-23T05:41:34.495Z,22.57
2018-01-23T05:42:34.498Z,22.57
2018-01-23T05:43:34.500Z,22.52
2018-01-23T05:44:34.502Z,22.54
2018-01-23T05:45:34.504Z,22.57
2018-01-23T05:46:34.507Z,22.52
2018-01-23T05:47:34.509Z,22.57
2018-01-23T05:48:34.514Z,22.60
2018-01-23T05:49:34.516Z,22.57
2018-01-23T05:50:34.516Z,22.61
2018-01-23T05:51:34.519Z,22.61
2018-01-23T05:52:34.520Z,22.60
2018-01-23T05:53:34.523Z,22.62
2018-01-23T05:54:34.525Z,22.62
2018-01-23T05:55:34.529Z,22.57
2018-01-23T05:56:34.529Z,22.72
2018-01-23T05:57:34.531Z,22.62
2018-01-23T05:58:34.534Z,22.62
2018-01-23T05:59:34.536Z,22.68
2018-01-23T06:00:34.539Z,22.67
2018-01-23T06:01:34.541Z,22.75
2018-01-23T06:02:34.553Z,22.72
2018-01-23T06:03:34.547Z,22.75
2018-01-23T06:04:34.548Z,22.72
2018-01-23T06:05:34.550Z,22.65
2018-01-23T06:06:34.554Z,22.75
2018-01-23T06:07:34.555Z,22.72
2018-01-23T06:08:34.574Z,22.73
2018-01-23T06:09:34.560Z,22.68
2018-01-23T06:10:34.562Z,22.72
2018-01-23T06:11:34.565Z,22.72
2018-01-23T06:12:34.566Z,22.75
2018-01-23T06:13:34.572Z,22.70
2018-01-23T06:14:34.579Z,22.79
2018-01-23T06:15:34.578Z,22.83
2018-01-23T06:16:34.580Z,22.82
2018-01-23T06:17:34.581Z,22.79
2018-01-23T06:18:34.585Z,22.76
2018-01-23T06:19:34.584Z,22.76
2018-01-23T06:20:34.586Z,22.76
2018-01-23T06:21:34.594Z,22.76
2018-01-23T06:22:34.589Z,22.85
2018-01-23T06:23:34.594Z,22.80
2018-01-23T06:24:34.600Z,22.76
2018-01-23T06:25:34.599Z,22.88
2018-01-23T06:26:34.639Z,22.86
2018-01-23T06:27:34.604Z,22.88
2018-01-23T06:28:34.605Z,22.85
2018-01-23T06:29:34.608Z,22.86
2018-01-23T06:30:34.610Z,22.86
2018-01-23T06:31:34.615Z,22.91
2018-01-23T06:32:34.615Z,22.90
2018-01-23T06:33:34.617Z,22.83
2018-01-23T06:34:34.621Z,22.94
2018-01-23T06:35:34.623Z,22.90
2018-01-23T06:36:34.625Z,22.88
2018-01-23T06:37:34.629Z,22.94
2018-01-23T06:38:34.630Z,22.94
2018-01-23T06:39:34.634Z,22.94
2018-01-23T06:40:34.635Z,22.91
2018-01-23T06:41:34.637Z,22.97
2018-01-23T06:42:34.642Z,22.92
2018-01-23T06:43:34.641Z,22.91
2018-01-23T06:44:34.646Z,22.98
2018-01-23T06:45:34.647Z,22.94
2018-01-23T06:46:34.650Z,22.97
2018-01-23T06:47:34.653Z,22.98
2018-01-23T06:48:34.658Z,22.97
2018-01-23T06:49:34.662Z,22.98
2018-01-23T06:50:34.664Z,23.02
2018-01-23T06:51:34.664Z,22.95
2018-01-23T06:52:34.665Z,23.04
2018-01-23T06:53:34.673Z,23.01
2018-01-23T06:54:34.670Z,22.97
2018-01-23T06:55:34.673Z,23.00
2018-01-23T06:56:34.675Z,22.95
2018-01-23T06:57:34.678Z,23.00
2018-01-23T06:58:34.680Z,23.04
2018-01-23T06:59:34.684Z,22.98
2018-01-23T07:00:34.685Z,23.05
2018-01-23T07:01:34.688Z,23.01
2018-01-23T07:02:34.713Z,23.02
2018-01-23T07:03:34.694Z,23.01
2018-01-23T07:04:34.696Z,23.01
2018-01-23T07:05:34.698Z,23.10
2018-01-23T07:06:34.702Z,23.05
2018-01-23T07:07:34.705Z,23.07
2018-01-23T07:08:34.706Z,23.10
2018-01-23T07:09:34.715Z,23.07
2018-01-23T07:10:34.712Z,23.04
2018-01-23T07:11:34.716Z,23.05
2018-01-23T07:12:34.716Z,23.10
2018-01-23T07:13:34.719Z,23.04
2018-01-23T07:14:34.722Z,23.07
2018-01-23T07:15:34.725Z,23.04
2018-01-23T07:16:34.726Z,23.01
2018-01-23T07:17:34.729Z,23.16
2018-01-23T07:18:34.733Z,23.05
2018-01-23T07:19:34.741Z,23.09
2018-01-23T07:20:34.787Z,23.07
2018-01-23T07:21:34.741Z,23.13
2018-01-23T07:22:34.745Z,23.12
2018-01-23T07:23:34.746Z,23.02
2018-01-23T07:24:34.747Z,23.04
2018-01-23T07:25:34.752Z,23.02
2018-01-23T07:26:34.753Z,23.07
2018-01-23T07:27:34.756Z,23.01
2018-01-23T07:28:34.758Z,23.07
2018-01-23T07:29:34.761Z,23.02
2018-01-23T07:30:34.765Z,23.04
2018-01-23T07:31:34.780Z,23.02
2018-01-23T07:32:34.768Z,23.13
2018-01-23T07:33:34.773Z,23.16
2018-01-23T07:34:34.774Z,23.05
2018-01-23T07:35:34.777Z,23.12
2018-01-23T07:36:34.779Z,23.19
2018-01-23T07:37:34.779Z,23.19
2018-01-23T07:38:34.785Z,23.17
2018-01-23T07:39:34.788Z,23.20
2018-01-23T07:40:34.790Z,23.23
2018-01-23T07:41:34.793Z,23.22
2018-01-23T07:42:34.795Z,23.19
2018-01-23T07:43:34.797Z,23.23
2018-01-23T07:44:34.801Z,23.10
2018-01-23T07:45:34.802Z,23.16
2018-01-23T07:46:34.811Z,23.19
2018-01-23T07:47:34.808Z,23.19
2018-01-23T07:48:34.811Z,23.19
2018-01-23T07:49:34.813Z,23.22
2018-01-23T07:50:34.818Z,23.19
2018-01-23T07:51:34.819Z,23.28
2018-01-23T07:52:34.822Z,23.20
2018-01-23T07:53:34.824Z,23.20
2018-01-23T07:54:34.830Z,23.17
2018-01-23T07:55:34.830Z,23.25
2018-01-23T07:56:34.833Z,23.22
2018-01-23T07:57:34.837Z,23.23
2018-01-23T07:58:34.838Z,23.28
2018-01-23T07:59:34.842Z,23.25
2018-01-23T08:00:34.845Z,23.23
2018-01-23T08:01:34.851Z,23.25
2018-01-23T08:02:34.849Z,23.20
2018-01-23T08:03:34.852Z,23.22
2018-01-23T08:04:34.853Z,23.27
2018-01-23T08:05:34.857Z,23.22
2018-01-23T08:06:34.861Z,23.20
2018-01-23T08:07:34.863Z,23.27
2018-01-23T08:08:34.866Z,23.20
2018-01-23T08:09:34.867Z,23.39
2018-01-23T08:10:34.870Z,23.22
2018-01-23T08:11:34.872Z,23.15
2018-01-23T08:12:34.873Z,23.16
2018-01-23T08:13:34.876Z,23.05
2018-01-23T08:14:34.877Z,23.02
2018-01-23T08:15:34.876Z,23.12
2018-01-23T08:16:34.880Z,23.05
2018-01-23T08:17:34.880Z,22.98
2018-01-23T08:18:34.881Z,23.02
2018-01-23T08:19:34.882Z,23.01
2018-01-23T08:20:34.884Z,22.98
2018-01-23T08:21:34.884Z,23.04
2018-01-23T08:22:34.883Z,22.94
2018-01-23T08:23:34.887Z,22.95
2018-01-23T08:24:34.889Z,22.94
2018-01-23T08:25:34.888Z,22.97
2018-01-23T08:26:34.889Z,22.91
2018-01-23T08:27:34.892Z,22.80
2018-01-23T08:28:34.891Z,22.83
2018-01-23T08:29:34.892Z,22.76
2018-01-23T08:30:34.892Z,22.75
2018-01-23T08:31:34.893Z,22.73
2018-01-23T08:32:34.893Z,22.75
2018-01-23T08:33:34.906Z,22.72
2018-01-23T08:34:34.900Z,22.67
2018-01-23T08:35:34.894Z,22.64
2018-01-23T08:36:34.894Z,22.72
2018-01-23T08:37:34.895Z,22.62
2018-01-23T08:38:34.894Z,22.64
2018-01-23T08:39:34.899Z,22.55
2018-01-23T08:40:34.894Z,22.57
2018-01-23T08:41:34.895Z,22.55
2018-01-23T08:42:34.895Z,22.64
2018-01-23T08:43:34.895Z,22.61
2018-01-23T08:44:34.894Z,22.46
2018-01-23T08:45:34.903Z,22.57
2018-01-23T08:46:34.897Z,22.55
2018-01-23T08:47:34.896Z,22.55
2018-01-23T08:48:34.894Z,22.60
2018-01-23T08:49:34.895Z,22.54
2018-01-23T08:50:34.895Z,22.51
2018-01-23T08:51:34.894Z,22.61
2018-01-23T08:52:34.895Z,22.57
2018-01-23T08:53:34.895Z,22.57
2018-01-23T08:54:34.898Z,22.54
2018-01-23T08:55:34.896Z,22.49
2018-01-23T08:56:34.894Z,22.52
2018-01-23T08:57:34.898Z,22.47
2018-01-23T08:58:34.895Z,22.54
2018-01-23T08:59:34.896Z,22.51
2018-01-23T09:00:34.894Z,22.47
2018-01-23T09:01:34.895Z,22.46
2018-01-23T09:02:34.893Z,22.49
2018-01-23T09:03:34.894Z,22.49
2018-01-23T09:04:34.894Z,22.47
2018-01-23T09:05:34.895Z,22.47
2018-01-23T09:06:34.894Z,22.57
2018-01-23T09:07:34.895Z,22.54
2018-01-23T09:08:34.894Z,22.60
2018-01-23T09:09:34.894Z,22.54
2018-01-23T09:10:34.900Z,22.60
2018-01-23T09:11:34.896Z,22.58
2018-01-23T09:12:34.895Z,22.57
2018-01-23T09:13:34.897Z,22.54
2018-01-23T09:14:34.896Z,22.60
2018-01-23T09:15:34.896Z,22.64
2018-01-23T09:16:34.897Z,22.65
2018-01-23T09:17:34.896Z,22.55
2018-01-23T09:18:34.897Z,22.61
2018-01-23T09:19:34.898Z,22.68
2018-01-23T09:20:34.899Z,22.61
2018-01-23T09:21:34.902Z,22.64
2018-01-23T09:22:34.899Z,22.60
2018-01-23T09:23:34.899Z,22.62
2018-01-23T09:24:34.948Z,22.72
2018-01-23T09:25:34.899Z,22.64
2018-01-23T09:26:34.912Z,22.58
2018-01-23T09:27:34.900Z,22.52
2018-01-23T09:28:34.899Z,22.64
2018-01-23T09:29:34.900Z,22.62
2018-01-23T09:30:34.902Z,22.64
2018-01-23T09:31:34.901Z,22.65
2018-01-23T09:32:34.902Z,22.57
2018-01-23T09:33:34.901Z,22.55
2018-01-23T09:34:34.901Z,22.61
2018-01-23T09:35:34.903Z,22.60
2018-01-23T09:36:34.901Z,22.54
2018-01-23T09:37:34.902Z,22.55
2018-01-23T09:38:34.902Z,22.54
2018-01-23T09:39:34.902Z,22.57
2018-01-23T09:40:34.901Z,22.58
2018-01-23T09:41:34.901Z,22.52
2018-01-23T09:42:34.904Z,22.68
2018-01-23T09:43:34.902Z,22.57
2018-01-23T09:44:34.903Z,22.64
2018-01-23T09:45:34.902Z,22.70
2018-01-23T09:46:34.903Z,22.72
2018-01-23T09:47:34.905Z,22.64
2018-01-23T09:48:34.905Z,22.64
2018-01-23T09:49:34.904Z,22.58
2018-01-23T09:50:34.906Z,22.49
2018-01-23T09:51:34.906Z,22.49
2018-01-23T09:52:34.905Z,22.64
2018-01-23T09:53:34.906Z,22.61
2018-01-23T09:54:34.907Z,22.65
2018-01-23T09:55:34.908Z,22.75
2018-01-23T09:56:34.909Z,22.70
2018-01-23T09:57:34.909Z,22.67
2018-01-23T09:58:34.910Z,22.73
2018-01-23T09:59:34.912Z,22.67
2018-01-23T10:00:34.913Z,22.64
2018-01-23T10:01:34.913Z,22.64
2018-01-23T10:02:34.912Z,22.62
2018-01-23T10:03:34.914Z,22.61
2018-01-23T10:04:34.911Z,22.60
2018-01-23T10:05:34.914Z,22.75
2018-01-23T10:06:34.917Z,22.72
2018-01-23T10:07:34.917Z,22.67
2018-01-23T10:08:34.916Z,22.64
2018-01-23T10:09:34.918Z,22.64
2018-01-23T10:10:34.921Z,22.72
2018-01-23T10:11:34.917Z,22.70
2018-01-23T10:12:34.915Z,22.73
2018-01-23T10:13:34.920Z,22.64
2018-01-23T10:14:34.919Z,22.55
2018-01-23T10:15:34.919Z,22.72
2018-01-23T10:16:34.919Z,22.73
2018-01-23T10:17:34.919Z,22.70
2018-01-23T10:18:34.920Z,22.70
2018-01-23T10:19:34.921Z,22.67
2018-01-23T10:20:34.919Z,22.76
2018-01-23T10:21:34.921Z,22.62
2018-01-23T10:22:34.922Z,22.60
2018-01-23T10:23:34.940Z,22.64
2018-01-23T10:24:34.921Z,22.67
2018-01-23T10:25:34.923Z,22.62
2018-01-23T10:26:34.920Z,22.60
2018-01-23T10:27:34.925Z,22.65
2018-01-23T10:28:34.923Z,22.61
2018-01-23T10:29:34.923Z,22.65
2018-01-23T10:30:34.924Z,22.72
2018-01-23T10:31:34.926Z,22.72
2018-01-23T10:32:34.923Z,22.64
2018-01-23T10:33:34.924Z,22.62
2018-01-23T10:34:34.927Z,22.61
2018-01-23T10:35:34.927Z,22.55
2018-01-23T10:36:34.925Z,22.64
2018-01-23T10:37:34.924Z,22.62
2018-01-23T10:38:34.927Z,22.52
2018-01-23T10:39:34.928Z,22.60
2018-01-23T10:40:34.926Z,22.55
2018-01-23T10:41:34.927Z,22.55
2018-01-23T10:42:34.927Z,22.68
2018-01-23T10:43:34.927Z,22.55
2018-01-23T10:44:34.927Z,22.60
2018-01-23T10:45:34.927Z,22.58
2018-01-23T10:46:34.927Z,22.55
2018-01-23T10:47:34.926Z,22.57
2018-01-23T10:48:34.928Z,22.54
2018-01-23T10:49:34.927Z,22.57
2018-01-23T10:50:34.928Z,22.65
2018-01-23T10:51:34.928Z,22.60
2018-01-23T10:52:34.927Z,22.70
2018-01-23T10:53:34.931Z,22.62
2018-01-23T10:54:34.938Z,22.62
2018-01-23T10:55:34.931Z,22.67
2018-01-23T10:56:34.932Z,22.55
2018-01-23T10:57:34.932Z,22.57
2018-01-23T10:58:34.932Z,22.49
2018-01-23T10:59:34.934Z,22.54
2018-01-23T11:00:34.932Z,22.54
2018-01-23T11:01:34.934Z,22.51
2018-01-23T11:02:34.932Z,22.57
2018-01-23T11:03:34.934Z,22.54
2018-01-23T11:04:34.933Z,22.54
2018-01-23T11:05:34.938Z,22.57
2018-01-23T11:06:34.939Z,22.62
2018-01-23T11:07:34.935Z,22.61
2018-01-23T11:08:34.935Z,22.73
2018-01-23T11:09:34.936Z,22.72
2018-01-23T11:10:34.937Z,22.76
2018-01-23T11:11:34.954Z,22.76
2018-01-23T11:12:34.943Z,22.76
2018-01-23T11:13:34.943Z,22.80
2018-01-23T11:14:34.946Z,22.85
2018-01-23T11:15:34.944Z,22.91
2018-01-23T11:16:34.956Z,22.92
2018-01-23T11:17:34.952Z,22.91
2018-01-23T11:18:34.953Z,22.91
2018-01-23T11:19:34.956Z,23.01
2018-01-23T11:20:35.000Z,23.01
2018-01-23T11:21:34.957Z,23.01
2018-01-23T11:22:34.959Z,23.05
2018-01-23T11:23:34.967Z,23.00
2018-01-23T11:24:34.966Z,23.07
2018-01-23T11:25:34.969Z,23.13
2018-01-23T11:26:34.970Z,23.12
2018-01-23T11:27:34.975Z,23.09
2018-01-23T11:28:34.973Z,23.09
2018-01-23T11:29:34.977Z,23.15
2018-01-23T11:30:34.981Z,23.16
2018-01-23T11:31:34.985Z,23.12
2018-01-23T11:32:34.984Z,23.12
2018-01-23T11:33:34.987Z,23.19
2018-01-23T11:34:34.989Z,23.07
2018-01-23T11:35:34.992Z,23.25
2018-01-23T11:36:34.994Z,23.32
2018-01-23T11:37:34.996Z,23.25
2018-01-23T11:38:34.998Z,23.20
2018-01-23T11:39:35.002Z,23.19
2018-01-23T11:40:35.006Z,23.19
2018-01-23T11:41:35.005Z,23.17
2018-01-23T11:42:35.005Z,23.16
2018-01-23T11:43:35.007Z,23.07
2018-01-23T11:44:35.008Z,23.10
2018-01-23T11:45:35.009Z,23.09
2018-01-23T11:46:35.013Z,23.05
2018-01-23T11:47:35.013Z,23.02
2018-01-23T11:48:35.013Z,23.09
2018-01-23T11:49:35.015Z,23.05
2018-01-23T11:50:35.016Z,23.05
2018-01-23T11:51:35.025Z,23.05
2018-01-23T11:52:35.017Z,23.04
2018-01-23T11:53:35.019Z,23.12
2018-01-23T11:54:35.022Z,23.07
2018-01-23T11:55:35.025Z,23.16
2018-01-23T11:56:35.025Z,23.09
2018-01-23T11:57:35.027Z,23.15
2018-01-23T11:58:35.040Z,23.19
2018-01-23T11:59:35.031Z,23.27
2018-01-23T12:00:35.034Z,23.25
2018-01-23T12:01:35.035Z,23.27
2018-01-23T12:02:35.039Z,23.27
2018-01-23T12:03:35.040Z,23.17
2018-01-23T12:04:35.044Z,23.32
2018-01-23T12:05:35.046Z,23.28
2018-01-23T12:06:35.046Z,23.35
2018-01-23T12:07:35.050Z,23.39
2018-01-23T12:08:35.053Z,23.36
2018-01-23T12:09:35.056Z,23.39
2018-01-23T12:10:35.064Z,23.35
2018-01-23T12:11:35.062Z,23.36
2018-01-23T12:12:35.063Z,23.38
2018-01-23T12:13:35.068Z,23.39
2018-01-23T12:14:35.068Z,23.42
2018-01-23T12:15:35.073Z,23.43
2018-01-23T12:16:35.085Z,23.46
2018-01-23T12:17:35.082Z,23.53
2018-01-23T12:18:35.080Z,23.54
2018-01-23T12:19:35.084Z,23.46
2018-01-23T12:20:35.085Z,23.43
2018-01-23T12:21:35.090Z,23.50
2018-01-23T12:22:35.095Z,23.48
2018-01-23T12:23:35.099Z,23.55
2018-01-23T12:24:35.098Z,23.51
2018-01-23T12:25:35.101Z,23.50
2018-01-23T12:26:35.103Z,23.50
2018-01-23T12:27:35.107Z,23.55
2018-01-23T12:28:35.110Z,23.61
2018-01-23T12:29:35.110Z,23.53
2018-01-23T12:30:35.115Z,23.60
2018-01-23T12:31:35.127Z,23.54
2018-01-23T12:32:35.130Z,23.61
2018-01-23T12:33:35.123Z,23.58
2018-01-23T12:34:35.126Z,23.57
2018-01-23T12:35:35.166Z,23.63
2018-01-23T12:36:35.132Z,23.65
2018-01-23T12:37:35.137Z,23.65
2018-01-23T12:38:35.140Z,23.65
2018-01-23T12:39:35.142Z,23.65
2018-01-23T12:40:35.143Z,23.65
2018-01-23T12:41:35.155Z,23.61
2018-01-23T12:42:35.150Z,23.68
2018-01-23T12:43:35.154Z,23.72
2018-01-23T12:44:35.155Z,23.72
2018-01-23T12:45:35.157Z,23.70
2018-01-23T12:46:35.163Z,23.73
2018-01-23T12:47:35.165Z,23.69
2018-01-23T12:48:35.170Z,23.72
2018-01-23T12:49:35.171Z,23.70
2018-01-23T12:50:35.174Z,23.84
2018-01-23T12:51:35.177Z,23.83
2018-01-23T12:52:35.179Z,23.75